createdAt,value
2018-03-07T00:02:26.317Z,58.33
2018-03-07T00:04:53.758Z,60.40
2018-03-07T00:07:21.577Z,65.87
2018-03-07T00:09:49.013Z,64.60
2018-03-07T00:12:16.458Z,62.97
2018-03-07T00:14:43.885Z,61.00
2018-03-07T00:17:11.730Z,61.47
2018-03-07T00:19:39.578Z,59.37
2018-03-07T00:22:08.155Z,64.00
2018-03-07T00:24:35.593Z,63.00
2018-03-07T00:27:03.430Z,66.30
2018-03-07T00:29:30.864Z,67.10
2018-03-07T00:31:58.312Z,70.20
2018-03-07T00:34:26.152Z,67.30
2018-03-07T00:36:53.586Z,63.63
2018-03-07T00:39:21.018Z,65.17
2018-03-07T00:41:48.865Z,61.63
2018-03-07T00:44:16.323Z,55.27
2018-03-07T00:46:43.759Z,58.10
2018-03-07T00:49:11.966Z,56.80
2018-03-07T00:51:40.159Z,62.40
2018-03-07T00:54:07.595Z,58.60
2018-03-07T00:56:35.033Z,59.03
2018-03-07T00:59:03.233Z,61.27
2018-03-07T01:01:31.435Z,63.30
2018-03-07T01:03:59.658Z,58.37
2018-03-07T01:06:27.486Z,56.77
2018-03-07T01:08:55.688Z,59.07
2018-03-07T01:11:23.526Z,67.20
2018-03-07T01:13:51.717Z,56.47
2018-03-07T01:16:19.566Z,65.60
2018-03-07T01:18:47.402Z,68.53
2018-03-07T01:21:14.845Z,71.00
2018-03-07T01:23:43.066Z,70.90
2018-03-07T01:26:10.519Z,72.33
2018-03-07T01:28:37.956Z,79.33
2018-03-07T01:31:05.382Z,85.73
2018-03-07T01:33:32.821Z,83.37
2018-03-07T01:36:00.241Z,78.50
2018-03-07T01:38:27.689Z,80.67
2018-03-07T01:40:55.130Z,72.67
2018-03-07T01:43:22.959Z,69.37
2018-03-07T01:45:50.401Z,64.47
2018-03-07T01:48:18.612Z,60.97
2018-03-07T01:50:46.811Z,58.87
2018-03-07T01:53:14.630Z,64.67
2018-03-07T01:55:42.834Z,56.97
2018-03-07T01:58:10.265Z,55.30
2018-03-07T02:00:37.693Z,55.07
2018-03-07T02:03:05.142Z,54.47
2018-03-07T02:05:32.591Z,50.37
2018-03-07T02:08:00.013Z,51.00
2018-03-07T02:10:27.889Z,48.97
2018-03-07T02:12:55.322Z,48.57
2018-03-07T02:15:22.772Z,45.50
2018-03-07T02:17:51.837Z,43.33
2018-03-07T02:20:20.121Z,45.70
2018-03-07T02:22:48.388Z,42.73
2018-03-07T02:25:16.356Z,50.37
2018-03-07T02:27:44.324Z,42.30
2018-03-07T02:30:11.830Z,42.30
2018-03-07T02:32:39.341Z,42.00
2018-03-07T02:35:07.604Z,46.77
2018-03-07T02:37:35.492Z,48.47
2018-03-07T02:40:03.016Z,46.50
2018-03-07T02:42:30.632Z,45.43
2018-03-07T02:44:58.892Z,47.90
2018-03-07T02:47:26.392Z,43.00
2018-03-07T02:49:53.952Z,49.53
2018-03-07T02:52:21.537Z,42.87
2018-03-07T02:54:49.521Z,47.87
2018-03-07T02:57:17.501Z,45.80
2018-03-07T02:59:45.076Z,39.63
2018-03-07T03:02:12.608Z,41.93
2018-03-07T03:04:40.102Z,44.40
2018-03-07T03:07:08.361Z,42.43
2018-03-07T03:09:35.861Z,44.60
2018-03-07T03:12:03.361Z,50.80
2018-03-07T03:14:30.924Z,47.70
2018-03-07T03:16:59.211Z,46.27
2018-03-07T03:19:27.532Z,43.60
2018-03-07T03:21:55.112Z,45.90
2018-03-07T03:24:22.616Z,50.40
2018-03-07T03:26:50.176Z,46.63
2018-03-07T03:29:17.691Z,47.87
2018-03-07T03:31:45.201Z,54.10
2018-03-07T03:34:12.764Z,49.27
2018-03-07T03:36:41.034Z,50.67
2018-03-07T03:39:09.368Z,46.23
2018-03-07T03:41:37.283Z,45.93
2018-03-07T03:44:04.841Z,44.63
2018-03-07T03:46:32.420Z,44.40
2018-03-07T03:49:00.779Z,41.23
2018-03-07T03:51:28.285Z,43.20
2018-03-07T03:53:55.782Z,40.93
2018-03-07T03:56:23.356Z,42.30
2018-03-07T03:58:50.880Z,39.10
2018-03-07T04:01:18.448Z,41.63
2018-03-07T04:03:45.965Z,41.40
2018-03-07T04:06:13.469Z,39.20
2018-03-07T04:08:40.981Z,39.60
2018-03-07T04:11:08.886Z,36.93
2018-03-07T04:13:36.386Z,34.57
2018-03-07T04:16:03.893Z,36.03
2018-03-07T04:18:31.414Z,33.97
2018-03-07T04:20:59.748Z,38.90
2018-03-07T04:23:28.083Z,38.40
2018-03-07T04:25:56.364Z,38.97
2018-03-07T04:28:24.328Z,37.40
2018-03-07T04:30:51.826Z,37.40
2018-03-07T04:33:20.180Z,36.30
2018-03-07T04:35:47.696Z,36.77
2018-03-07T04:38:16.028Z,37.20
2018-03-07T04:40:43.650Z,37.27
2018-03-07T04:43:11.202Z,34.93
2018-03-07T04:45:39.560Z,38.30
2018-03-07T04:48:07.071Z,38.70
2018-03-07T04:50:35.346Z,32.97
2018-03-07T04:53:02.890Z,32.83
2018-03-07T04:55:30.394Z,36.47
2018-03-07T04:57:58.732Z,32.10
2018-03-07T05:00:26.255Z,37.33
2018-03-07T05:02:54.216Z,35.90
2018-03-07T05:05:21.819Z,37.10
2018-03-07T05:07:49.335Z,34.10
2018-03-07T05:10:16.836Z,35.40
2018-03-07T05:12:44.404Z,36.10
2018-03-07T05:15:12.325Z,38.60
2018-03-07T05:17:39.820Z,34.47
2018-03-07T05:20:07.300Z,38.67
2018-03-07T05:22:34.880Z,39.03
2018-03-07T05:25:02.771Z,37.37
2018-03-07T05:27:30.269Z,36.87
2018-03-07T05:29:58.549Z,36.80
2018-03-07T05:32:26.880Z,38.27
2018-03-07T05:34:55.153Z,36.73
2018-03-07T05:37:24.232Z,39.83
2018-03-07T05:39:51.757Z,39.67
2018-03-07T05:42:19.251Z,36.93
2018-03-07T05:44:47.608Z,37.50
2018-03-07T05:47:15.947Z,37.47
2018-03-07T05:49:44.212Z,39.87
2018-03-07T05:52:12.175Z,41.40
2018-03-07T05:54:39.701Z,39.23
2018-03-07T05:57:07.191Z,41.83
2018-03-07T05:59:34.777Z,41.13
2018-03-07T06:02:02.268Z,43.00
2018-03-07T06:04:30.552Z,42.93
2018-03-07T06:06:58.551Z,42.63
2018-03-07T06:09:26.895Z,45.07
2018-03-07T06:11:55.979Z,45.10
2018-03-07T06:14:23.494Z,49.40
2018-03-07T06:16:51.016Z,43.10
2018-03-07T06:19:19.223Z,46.50
2018-03-07T06:21:47.195Z,50.70
2018-03-07T06:24:15.459Z,46.47
2018-03-07T06:26:42.961Z,45.03
2018-03-07T06:29:10.609Z,46.97
2018-03-07T06:31:38.104Z,42.47
2018-03-07T06:34:05.655Z,44.20
2018-03-07T06:36:33.977Z,42.10
2018-03-07T06:39:01.489Z,37.97
2018-03-07T06:41:30.407Z,39.83
2018-03-07T06:43:57.917Z,40.70
2018-03-07T06:46:25.459Z,36.00
2018-03-07T06:48:52.952Z,37.13
2018-03-07T06:51:21.845Z,34.53
2018-03-07T06:53:49.418Z,36.90
2018-03-07T06:56:17.010Z,32.03
2018-03-07T06:58:44.973Z,32.17
2018-03-07T07:01:12.821Z,33.67
2018-03-07T07:03:40.379Z,31.33
2018-03-07T07:06:07.960Z,31.57
2018-03-07T07:08:35.489Z,32.27
2018-03-07T07:11:03.106Z,32.70
2018-03-07T07:13:30.614Z,35.17
2018-03-07T07:15:58.095Z,36.77
2018-03-07T07:18:25.668Z,33.77
2018-03-07T07:20:53.185Z,33.13
2018-03-07T07:23:22.194Z,34.97
2018-03-07T07:25:49.772Z,32.70
2018-03-07T07:28:18.135Z,32.80
2018-03-07T07:30:45.651Z,28.73
2018-03-07T07:33:13.570Z,29.53
2018-03-07T07:35:41.520Z,29.70
2018-03-07T07:38:09.428Z,28.43
2018-03-07T07:40:36.920Z,31.20
2018-03-07T07:43:05.276Z,29.67
2018-03-07T07:45:32.799Z,30.13
2018-03-07T07:48:00.366Z,29.37
2018-03-07T07:50:27.949Z,27.60
2018-03-07T07:52:55.468Z,26.23
2018-03-07T07:55:23.798Z,26.70
2018-03-07T07:57:51.288Z,29.03
2018-03-07T08:00:18.860Z,26.47
2018-03-07T08:02:46.363Z,25.77
2018-03-07T08:05:14.694Z,26.70
2018-03-07T08:07:42.192Z,27.67
2018-03-07T08:10:09.679Z,26.67
2018-03-07T08:12:37.186Z,26.53
2018-03-07T08:15:04.672Z,24.53
2018-03-07T08:17:32.570Z,24.13
2018-03-07T08:20:00.134Z,24.27
2018-03-07T08:22:27.636Z,25.33
2018-03-07T08:24:55.597Z,25.73
2018-03-07T08:27:23.932Z,24.90
2018-03-07T08:29:51.458Z,25.40
2018-03-07T08:32:18.959Z,25.37
2018-03-07T08:34:47.205Z,25.70
2018-03-07T08:37:16.161Z,25.70
2018-03-07T08:39:43.808Z,27.20
2018-03-07T08:42:11.371Z,26.50
2018-03-07T08:44:38.969Z,30.33
2018-03-07T08:47:07.257Z,28.43
2018-03-07T08:49:35.164Z,28.77
2018-03-07T08:52:02.657Z,29.90
2018-03-07T08:54:30.561Z,29.27
2018-03-07T08:56:58.464Z,28.80
2018-03-07T08:59:25.989Z,30.90
2018-03-07T09:01:53.651Z,32.07
2018-03-07T09:04:21.910Z,31.10
2018-03-07T09:06:49.398Z,31.37
2018-03-07T09:09:16.975Z,33.83
2018-03-07T09:11:44.547Z,28.93
2018-03-07T09:14:12.067Z,30.10
2018-03-07T09:16:39.644Z,29.27
2018-03-07T09:19:07.216Z,30.63
2018-03-07T09:21:34.736Z,30.63
2018-03-07T09:24:02.268Z,31.00
2018-03-07T09:26:29.828Z,32.33
2018-03-07T09:28:57.367Z,31.20
2018-03-07T09:31:24.845Z,29.67
2018-03-07T09:33:52.337Z,28.90
2018-03-07T09:36:21.614Z,29.33
2018-03-07T09:38:49.179Z,26.57
2018-03-07T09:41:18.205Z,26.57
2018-03-07T09:43:46.554Z,24.47
2018-03-07T09:46:14.165Z,25.80
2018-03-07T09:48:42.065Z,26.83
2018-03-07T09:51:09.602Z,24.80
2018-03-07T09:53:37.163Z,24.13
2018-03-07T09:56:05.149Z,21.03
2018-03-07T09:58:33.741Z,24.53
2018-03-07T10:01:01.320Z,22.73
2018-03-07T10:03:29.588Z,22.37
2018-03-07T10:05:57.095Z,23.87
2018-03-07T10:08:25.385Z,22.97
2018-03-07T10:10:52.981Z,20.50
2018-03-07T10:13:20.554Z,18.87
2018-03-07T10:15:48.133Z,19.27
2018-03-07T10:18:15.706Z,14.33
2018-03-07T10:20:43.603Z,11.63
2018-03-07T10:23:11.168Z,5.57
2018-03-07T10:25:39.054Z,5.63
2018-03-07T10:28:06.551Z,5.50
2018-03-07T10:30:34.880Z,5.30
2018-03-07T10:33:03.623Z,5.20
2018-03-07T10:35:31.918Z,4.57
2018-03-07T10:37:59.820Z,5.33
2018-03-07T10:40:27.708Z,5.10
2018-03-07T10:42:55.662Z,5.20
2018-03-07T10:45:23.679Z,4.90
2018-03-07T10:47:51.664Z,4.70
2018-03-07T10:50:19.559Z,4.30
2018-03-07T10:52:47.884Z,4.07
2018-03-07T10:55:16.155Z,3.87
2018-03-07T10:57:44.118Z,3.40
2018-03-07T11:00:12.031Z,3.20
2018-03-07T11:02:40.016Z,3.83
2018-03-07T11:05:07.916Z,2.93
2018-03-07T11:07:35.871Z,2.90
2018-03-07T11:10:03.824Z,2.83
2018-03-07T11:12:32.161Z,3.30
2018-03-07T11:15:00.407Z,3.37
2018-03-07T11:17:28.380Z,2.97
2018-03-07T11:19:55.939Z,2.90
2018-03-07T11:22:24.206Z,3.87
2018-03-07T11:24:52.188Z,3.40
2018-03-07T11:27:20.155Z,2.87
2018-03-07T11:29:48.420Z,3.50
2018-03-07T11:32:15.922Z,3.40
2018-03-07T11:34:43.412Z,3.53
2018-03-07T11:37:11.665Z,3.43
2018-03-07T11:39:39.225Z,3.90
2018-03-07T11:42:07.122Z,3.37
2018-03-07T11:44:35.023Z,4.30
2018-03-07T11:47:03.275Z,3.43
2018-03-07T11:49:31.172Z,3.93
2018-03-07T11:51:59.412Z,3.47
2018-03-07T11:54:27.371Z,3.80
2018-03-07T11:56:55.261Z,3.77
2018-03-07T11:59:23.508Z,3.50
2018-03-07T12:01:51.396Z,4.10
2018-03-07T12:04:20.146Z,4.30
2018-03-07T12:06:47.765Z,3.83
2018-03-07T12:09:16.490Z,4.03
2018-03-07T12:11:43.979Z,4.33
2018-03-07T12:14:11.889Z,3.73
2018-03-07T12:16:39.740Z,4.07
2018-03-07T12:19:07.627Z,4.07
2018-03-07T12:21:35.975Z,4.10
2018-03-07T12:24:03.855Z,4.23
2018-03-07T12:26:32.194Z,3.50
2018-03-07T12:29:00.461Z,4.30
2018-03-07T12:31:29.524Z,3.50
2018-03-07T12:33:57.531Z,3.70
2018-03-07T12:36:25.860Z,2.50
2018-03-07T12:38:53.450Z,2.87
2018-03-07T12:41:21.797Z,3.10
2018-03-07T12:43:49.819Z,3.97
2018-03-07T12:46:17.723Z,3.20
2018-03-07T12:48:45.680Z,3.20
2018-03-07T12:51:13.946Z,3.40
2018-03-07T12:53:41.829Z,3.13
2018-03-07T12:56:09.812Z,3.10
2018-03-07T12:58:37.783Z,3.20
2018-03-07T13:01:06.190Z,3.10
2018-03-07T13:03:34.073Z,3.60
2018-03-07T13:06:02.054Z,3.30
2018-03-07T13:08:30.331Z,3.77
2018-03-07T13:10:58.605Z,2.40
2018-03-07T13:13:26.504Z,2.50
2018-03-07T13:15:54.476Z,2.13
2018-03-07T13:18:22.443Z,1.93
2018-03-07T13:20:50.709Z,2.70
2018-03-07T13:23:18.588Z,2.00
2018-03-07T13:25:46.487Z,2.10
2018-03-07T13:28:14.841Z,1.90
2018-03-07T13:30:42.813Z,2.30
2018-03-07T13:33:10.696Z,2.20
2018-03-07T13:35:38.976Z,1.70
2018-03-07T13:38:07.244Z,1.63
2018-03-07T13:40:34.753Z,1.80
2018-03-07T13:43:03.064Z,1.70
2018-03-07T13:45:31.040Z,1.97
2018-03-07T13:47:59.311Z,1.80
2018-03-07T13:50:27.203Z,1.80
2018-03-07T13:52:55.094Z,1.60
2018-03-07T13:55:23.076Z,1.17
2018-03-07T13:57:51.040Z,1.30
2018-03-07T14:00:19.373Z,1.40
2018-03-07T14:02:47.358Z,1.80
2018-03-07T14:05:15.999Z,1.70
2018-03-07T14:07:43.984Z,1.23
2018-03-07T14:10:11.480Z,1.50
2018-03-07T14:12:39.023Z,1.40
2018-03-07T14:15:06.566Z,1.63
2018-03-07T14:17:35.232Z,1.10
2018-03-07T14:20:03.497Z,1.20
2018-03-07T14:22:30.986Z,1.20
2018-03-07T14:24:59.251Z,1.43
2018-03-07T14:27:27.512Z,1.17
2018-03-07T14:29:55.846Z,1.20
2018-03-07T14:32:23.725Z,1.30
2018-03-07T14:34:51.691Z,1.87
2018-03-07T14:37:19.668Z,1.50
2018-03-07T14:39:47.555Z,1.30
2018-03-07T14:42:15.106Z,0.93
2018-03-07T14:44:42.697Z,1.30
2018-03-07T14:47:10.303Z,1.10
2018-03-07T14:49:38.557Z,1.30
2018-03-07T14:52:06.545Z,1.00
2018-03-07T14:54:34.445Z,1.00
2018-03-07T14:57:01.923Z,0.90
2018-03-07T14:59:29.430Z,1.67
2018-03-07T15:01:56.918Z,1.23
2018-03-07T15:04:25.225Z,1.00
2018-03-07T15:06:53.463Z,1.10
2018-03-07T15:09:21.793Z,1.00
2018-03-07T15:11:49.288Z,1.00
2018-03-07T15:14:16.788Z,1.20
2018-03-07T15:16:44.357Z,1.00
2018-03-07T15:19:12.628Z,1.10
2018-03-07T15:21:40.125Z,1.00
2018-03-07T15:24:07.630Z,0.80
2018-03-07T15:26:35.553Z,1.10
2018-03-07T15:29:03.137Z,0.80
2018-03-07T15:31:31.476Z,0.60
2018-03-07T15:33:59.035Z,0.73
2018-03-07T15:36:26.576Z,0.73
2018-03-07T15:38:54.236Z,0.80
2018-03-07T15:41:21.751Z,1.37
2018-03-07T15:43:49.319Z,0.87
2018-03-07T15:46:16.816Z,1.30
2018-03-07T15:48:44.369Z,1.10
2018-03-07T15:51:12.643Z,1.60
2018-03-07T15:53:40.201Z,1.30
2018-03-07T15:56:07.718Z,1.00
2018-03-07T15:58:35.681Z,1.20
2018-03-07T16:01:03.595Z,0.93
2018-03-07T16:03:31.118Z,1.20
2018-03-07T16:05:58.735Z,1.30
2018-03-07T16:08:26.306Z,1.20
2018-03-07T16:10:54.214Z,1.20
2018-03-07T16:13:21.734Z,1.10
2018-03-07T16:15:49.282Z,1.00
2018-03-07T16:18:16.896Z,1.37
2018-03-07T16:20:44.497Z,1.03
2018-03-07T16:23:12.782Z,1.20
2018-03-07T16:25:40.272Z,1.00
2018-03-07T16:28:08.546Z,0.80
2018-03-07T16:30:36.806Z,0.90
2018-03-07T16:33:04.368Z,0.90
2018-03-07T16:35:31.865Z,1.07
2018-03-07T16:37:59.375Z,0.80
2018-03-07T16:40:27.712Z,0.80
2018-03-07T16:42:55.296Z,0.77
2018-03-07T16:45:23.199Z,0.80
2018-03-07T16:47:51.168Z,0.57
2018-03-07T16:50:18.763Z,0.70
2018-03-07T16:52:46.318Z,0.90
2018-03-07T16:55:14.244Z,0.77
2018-03-07T16:57:41.883Z,0.50
2018-03-07T17:00:09.400Z,0.53
2018-03-07T17:02:38.410Z,0.67
2018-03-07T17:05:05.971Z,0.70
2018-03-07T17:07:33.572Z,0.70
2018-03-07T17:10:01.867Z,1.60
2018-03-07T17:12:29.747Z,0.70
2018-03-07T17:14:57.317Z,0.50
2018-03-07T17:17:25.230Z,0.57
2018-03-07T17:19:53.502Z,0.50
2018-03-07T17:22:21.876Z,0.70
2018-03-07T17:24:49.385Z,0.60
2018-03-07T17:27:16.970Z,0.73
2018-03-07T17:29:44.472Z,0.60
2018-03-07T17:32:12.344Z,1.10
2018-03-07T17:34:39.934Z,0.70
2018-03-07T17:37:07.451Z,0.60
2018-03-07T17:39:34.950Z,0.60
2018-03-07T17:42:02.858Z,0.80
2018-03-07T17:44:30.419Z,1.40
2018-03-07T17:46:58.152Z,1.50
2018-03-07T17:49:26.860Z,1.67
2018-03-07T17:51:55.134Z,1.30
2018-03-07T17:54:22.702Z,1.73
2018-03-07T17:56:50.304Z,1.00
2018-03-07T17:59:17.945Z,1.20
2018-03-07T18:01:45.436Z,1.03
2018-03-07T18:04:13.396Z,1.50
2018-03-07T18:06:41.357Z,1.30
2018-03-07T18:09:09.271Z,1.80
2018-03-07T18:11:37.566Z,1.97
2018-03-07T18:16:39.508Z,1.60
2018-03-07T18:19:07.091Z,1.90
2018-03-07T18:21:34.594Z,2.23
2018-03-07T18:24:02.862Z,2.70
2018-03-07T18:26:30.372Z,2.13
2018-03-07T18:28:57.942Z,2.37
2018-03-07T18:31:26.213Z,2.80
2018-03-07T18:33:54.580Z,2.33
2018-03-07T18:36:22.099Z,2.93
2018-03-07T18:38:49.989Z,2.67
2018-03-07T18:41:17.982Z,4.00
2018-03-07T18:43:46.172Z,3.30
2018-03-07T18:46:13.698Z,3.60
2018-03-07T18:48:42.080Z,3.80
2018-03-07T18:51:09.598Z,4.30
2018-03-07T18:53:38.015Z,4.50
2018-03-07T18:56:05.507Z,4.23
2018-03-07T18:58:33.843Z,5.20
2018-03-07T19:01:01.347Z,4.90
2018-03-07T19:03:28.832Z,4.83
2018-03-07T19:05:56.332Z,5.20
2018-03-07T19:11:14.265Z,5.97
2018-03-07T19:13:41.691Z,5.77
2018-03-07T19:16:09.901Z,6.23
2018-03-07T19:18:37.342Z,6.27
2018-03-07T19:21:04.768Z,5.93
2018-03-07T19:23:32.219Z,5.30
2018-03-07T19:25:59.664Z,5.93
2018-03-07T19:28:27.096Z,5.27
2018-03-07T19:30:54.521Z,6.23
2018-03-07T19:33:21.984Z,6.33
2018-03-07T19:35:49.415Z,5.80
2018-03-07T19:38:17.617Z,6.33
2018-03-07T19:40:45.451Z,8.00
2018-03-07T19:43:12.883Z,6.43
2018-03-07T19:45:41.077Z,6.57
2018-03-07T19:48:08.541Z,6.60
2018-03-07T19:50:35.978Z,6.80
2018-03-07T19:53:03.430Z,7.73
2018-03-07T19:55:31.630Z,6.97
2018-03-07T19:57:59.057Z,7.60
2018-03-07T20:00:26.504Z,6.97
2018-03-07T20:02:53.959Z,8.23
2018-03-07T20:05:21.797Z,8.63
2018-03-07T20:07:49.998Z,8.07
2018-03-07T20:10:17.847Z,8.63
2018-03-07T20:12:46.047Z,8.13
2018-03-07T20:15:14.236Z,9.57
2018-03-07T20:17:42.148Z,8.70
2018-03-07T20:20:09.586Z,9.33
2018-03-07T20:22:37.007Z,8.57
2018-03-07T20:25:04.460Z,10.80
2018-03-07T20:27:31.911Z,10.17
2018-03-07T20:29:59.752Z,10.77
2018-03-07T20:32:27.968Z,29.93
2018-03-07T20:34:55.406Z,9.47
2018-03-07T20:37:23.599Z,25.87
2018-03-07T20:39:51.462Z,14.70
2018-03-07T20:42:18.901Z,9.30
2018-03-07T20:44:46.332Z,10.40
2018-03-07T20:47:14.204Z,11.07
2018-03-07T20:49:41.631Z,10.00
2018-03-07T20:52:09.475Z,8.33
2018-03-07T20:54:37.692Z,10.00
2018-03-07T20:57:05.124Z,9.37
2018-03-07T20:59:32.947Z,9.37
2018-03-07T21:02:01.171Z,8.77
2018-03-07T21:04:28.610Z,9.27
2018-03-07T21:06:56.820Z,7.83
2018-03-07T21:09:24.255Z,8.73
2018-03-07T21:11:51.694Z,7.87
2018-03-07T21:14:19.523Z,8.27
2018-03-07T21:16:46.971Z,8.03
2018-03-07T21:19:14.402Z,7.73
2018-03-07T21:21:41.834Z,7.63
2018-03-07T21:24:09.283Z,6.97
2018-03-07T21:26:37.475Z,7.40
2018-03-07T21:29:04.899Z,6.80
2018-03-07T21:31:32.347Z,6.47
2018-03-07T21:33:59.787Z,5.30
2018-03-07T21:36:27.975Z,7.00
2018-03-07T21:38:55.419Z,5.87
2018-03-07T21:41:23.621Z,5.70
2018-03-07T21:43:51.055Z,7.03
2018-03-07T21:46:18.504Z,6.20
2018-03-07T21:48:46.351Z,6.87
2018-03-07T21:51:13.782Z,6.80
2018-03-07T21:53:41.995Z,8.33
2018-03-07T21:56:09.455Z,6.77
2018-03-07T21:58:36.896Z,10.20
2018-03-07T22:01:04.386Z,8.60
2018-03-07T22:03:31.769Z,10.83
2018-03-07T22:05:59.989Z,11.07
2018-03-07T22:08:27.831Z,11.23
2018-03-07T22:10:55.664Z,10.57
2018-03-07T22:13:23.175Z,11.87
2018-03-07T22:15:51.374Z,11.63
2018-03-07T22:18:18.806Z,12.83
2018-03-07T22:20:47.015Z,13.10
2018-03-07T22:23:14.451Z,12.40
2018-03-07T22:25:42.662Z,12.53
2018-03-07T22:28:10.095Z,13.40
2018-03-07T22:30:37.560Z,14.40
2018-03-07T22:33:04.995Z,15.00
2018-03-07T22:35:32.441Z,14.93
2018-03-07T22:37:59.889Z,14.27
2018-03-07T22:40:28.082Z,15.90
2018-03-07T22:42:55.518Z,15.40
2018-03-07T22:45:23.740Z,15.03
2018-03-07T22:47:51.174Z,13.40
2018-03-07T22:50:18.632Z,14.63
2018-03-07T22:52:46.082Z,13.40
2018-03-07T22:55:13.528Z,13.80
2018-03-07T22:57:41.730Z,14.20
2018-03-07T23:00:14.723Z,13.63
2018-03-07T23:02:42.171Z,14.30
2018-03-07T23:05:09.607Z,14.03
2018-03-07T23:07:37.819Z,13.67
2018-03-07T23:10:05.262Z,13.30
2018-03-07T23:12:32.705Z,13.80
2018-03-07T23:15:00.166Z,14.27
2018-03-07T23:17:28.379Z,14.10
2018-03-07T23:19:55.796Z,15.50
2018-03-07T23:22:23.256Z,13.73
2018-03-07T23:24:50.695Z,13.30
2018-03-07T23:27:18.282Z,14.37
2018-03-07T23:29:46.481Z,13.10
2018-03-07T23:32:14.675Z,12.80
2018-03-07T23:34:42.503Z,12.27
2018-03-07T23:37:10.729Z,14.27
2018-03-07T23:39:38.943Z,12.87
2018-03-07T23:42:06.388Z,12.87
2018-03-07T23:44:33.832Z,11.97
2018-03-07T23:47:01.271Z,13.53
2018-03-07T23:49:29.488Z,13.77
2018-03-07T23:51:56.948Z,12.70
2018-03-07T23:54:24.379Z,13.37
2018-03-07T23:56:51.822Z,13.53
2018-03-07T23:59:19.267Z,13.00
